sensor_id;sensor_type;location;lat;lon;timestamp;pressure;altitude;pressure_sealevel;temperature;humidity
65784;BME280;52532;53.358;-1.488;2022-09-04T00:02:50;100142.02;;;24.54;41.41
65784;BME280;52532;53.358;-1.488;2022-09-04T00:06:07;100141.28;;;22.79;44.58
65784;BME280;52532;53.358;-1.488;2022-09-04T00:09:21;100139.74;;;22.94;43.84
65784;BME280;52532;53.358;-1.488;2022-09-04T00:12:29;100130.87;;;23.42;42.25
65784;BME280;52532;53.358;-1.488;2022-09-04T00:15:38;100129.55;;;23.33;42.41
65784;BME280;52532;53.358;-1.488;2022-09-04T00:18:43;100131.35;;;22.11;44.29
65784;BME280;52532;53.358;-1.488;2022-09-04T00:21:52;100128.32;;;23.56;43.35
65784;BME280;52532;53.358;-1.488;2022-09-04T00:25:04;100137.79;;;22.18;44.87
65784;BME280;52532;53.358;-1.488;2022-09-04T00:28:16;100141.23;;;21.53;45.94
65784;BME280;52532;53.358;-1.488;2022-09-04T00:31:26;100138.61;;;21.51;46.22
65784;BME280;52532;53.358;-1.488;2022-09-04T00:34:44;100140.59;;;21.22;46.08
65784;BME280;52532;53.358;-1.488;2022-09-04T00:37:53;100138.46;;;23.16;43.64
65784;BME280;52532;53.358;-1.488;2022-09-04T00:41:06;100140.49;;;20.81;46.82
65784;BME280;52532;53.358;-1.488;2022-09-04T00:44:34;100150.02;;;21.81;45.36
65784;BME280;52532;53.358;-1.488;2022-09-04T00:48:22;100147.04;;;22.66;44.60
65784;BME280;52532;53.358;-1.488;2022-09-04T00:51:55;100146.41;;;23.51;42.71
65784;BME280;52532;53.358;-1.488;2022-09-04T00:55:33;100151.02;;;23.21;43.73
65784;BME280;52532;53.358;-1.488;2022-09-04T00:59:08;100156.96;;;21.17;45.65
65784;BME280;52532;53.358;-1.488;2022-09-04T01:02:39;100162.01;;;21.56;44.71
65784;BME280;52532;53.358;-1.488;2022-09-04T01:06:14;100161.96;;;22.81;42.53
65784;BME280;52532;53.358;-1.488;2022-09-04T01:09:56;100171.08;;;21.82;44.26
65784;BME280;52532;53.358;-1.488;2022-09-04T01:13:14;100165.54;;;21.91;44.30
65784;BME280;52532;53.358;-1.488;2022-09-04T01:16:36;100164.42;;;22.45;43.46
65784;BME280;52532;53.358;-1.488;2022-09-04T01:20:02;100160.31;;;21.49;44.33
65784;BME280;52532;53.358;-1.488;2022-09-04T01:23:31;100153.63;;;23.12;42.45
65784;BME280;52532;53.358;-1.488;2022-09-04T01:26:44;100153.58;;;23.98;41.02
65784;BME280;52532;53.358;-1.488;2022-09-04T01:29:58;100155.74;;;23.95;41.07
65784;BME280;52532;53.358;-1.488;2022-09-04T01:33:11;100163.18;;;22.81;43.59
65784;BME280;52532;53.358;-1.488;2022-09-04T01:36:19;100165.90;;;22.47;43.71
65784;BME280;52532;53.358;-1.488;2022-09-04T01:39:39;100169.60;;;21.56;44.07
65784;BME280;52532;53.358;-1.488;2022-09-04T01:43:02;100166.14;;;23.10;42.37
65784;BME280;52532;53.358;-1.488;2022-09-04T01:46:28;100170.72;;;23.00;42.62
65784;BME280;52532;53.358;-1.488;2022-09-04T01:49:37;100169.59;;;23.36;41.51
65784;BME280;52532;53.358;-1.488;2022-09-04T01:52:45;100169.14;;;23.60;41.09
65784;BME280;52532;53.358;-1.488;2022-09-04T01:55:57;100161.44;;;22.91;42.03
65784;BME280;52532;53.358;-1.488;2022-09-04T01:59:08;100153.61;;;20.31;46.44
65784;BME280;52532;53.358;-1.488;2022-09-04T02:02:22;100157.89;;;22.29;44.00
65784;BME280;52532;53.358;-1.488;2022-09-04T02:05:31;100162.28;;;22.31;43.29
65784;BME280;52532;53.358;-1.488;2022-09-04T02:08:51;100161.02;;;21.55;44.51
65784;BME280;52532;53.358;-1.488;2022-09-04T02:12:10;100164.94;;;23.03;43.12
65784;BME280;52532;53.358;-1.488;2022-09-04T02:15:21;100155.42;;;19.11;49.78
65784;BME280;52532;53.358;-1.488;2022-09-04T02:18:43;100163.52;;;20.65;47.21
65784;BME280;52532;53.358;-1.488;2022-09-04T02:21:56;100165.65;;;20.51;47.16
65784;BME280;52532;53.358;-1.488;2022-09-04T02:25:07;100167.45;;;20.61;46.87
65784;BME280;52532;53.358;-1.488;2022-09-04T02:28:35;100165.33;;;20.68;47.71
65784;BME280;52532;53.358;-1.488;2022-09-04T02:31:49;100165.92;;;20.89;46.98
65784;BME280;52532;53.358;-1.488;2022-09-04T02:35:00;100162.52;;;22.17;44.98
65784;BME280;52532;53.358;-1.488;2022-09-04T02:38:13;100165.49;;;22.20;45.67
65784;BME280;52532;53.358;-1.488;2022-09-04T02:41:24;100162.41;;;21.86;45.18
65784;BME280;52532;53.358;-1.488;2022-09-04T02:44:39;100160.91;;;22.36;45.47
65784;BME280;52532;53.358;-1.488;2022-09-04T02:47:49;100168.55;;;20.33;48.98
65784;BME280;52532;53.358;-1.488;2022-09-04T02:51:07;100172.06;;;18.83;52.32
65784;BME280;52532;53.358;-1.488;2022-09-04T02:54:24;100170.75;;;18.94;52.33
65784;BME280;52532;53.358;-1.488;2022-09-04T02:57:39;100172.64;;;20.58;48.08
65784;BME280;52532;53.358;-1.488;2022-09-04T03:00:49;100173.32;;;21.70;46.21
65784;BME280;52532;53.358;-1.488;2022-09-04T03:04:01;100172.38;;;21.76;46.25
65784;BME280;52532;53.358;-1.488;2022-09-04T03:07:10;100172.79;;;21.10;47.86
65784;BME280;52532;53.358;-1.488;2022-09-04T03:10:17;100170.42;;;21.50;47.64
65784;BME280;52532;53.358;-1.488;2022-09-04T03:13:24;100170.47;;;20.05;49.36
65784;BME280;52532;53.358;-1.488;2022-09-04T03:16:35;100171.90;;;21.45;47.31
65784;BME280;52532;53.358;-1.488;2022-09-04T03:19:48;100172.74;;;21.46;46.88
65784;BME280;52532;53.358;-1.488;2022-09-04T03:22:59;100171.28;;;21.60;47.26
65784;BME280;52532;53.358;-1.488;2022-09-04T03:26:14;100166.27;;;19.72;50.72
65784;BME280;52532;53.358;-1.488;2022-09-04T03:29:25;100169.92;;;21.42;47.66
65784;BME280;52532;53.358;-1.488;2022-09-04T03:32:39;100170.19;;;21.09;48.76
65784;BME280;52532;53.358;-1.488;2022-09-04T03:35:53;100170.30;;;20.87;49.19
65784;BME280;52532;53.358;-1.488;2022-09-04T03:39:02;100166.06;;;20.00;50.61
65784;BME280;52532;53.358;-1.488;2022-09-04T03:42:16;100166.51;;;19.34;51.82
65784;BME280;52532;53.358;-1.488;2022-09-04T03:45:28;100169.97;;;18.49;54.10
65784;BME280;52532;53.358;-1.488;2022-09-04T03:48:40;100166.82;;;20.86;49.42
65784;BME280;52532;53.358;-1.488;2022-09-04T03:51:57;100168.90;;;20.31;50.62
65784;BME280;52532;53.358;-1.488;2022-09-04T03:55:17;100171.54;;;18.80;54.23
65784;BME280;52532;53.358;-1.488;2022-09-04T03:58:31;100175.75;;;18.58;54.53
65784;BME280;52532;53.358;-1.488;2022-09-04T04:01:46;100166.46;;;19.94;52.51
65784;BME280;52532;53.358;-1.488;2022-09-04T04:05:09;100164.53;;;20.07;50.69
65784;BME280;52532;53.358;-1.488;2022-09-04T04:08:37;100165.34;;;20.21;50.82
65784;BME280;52532;53.358;-1.488;2022-09-04T04:11:52;100169.92;;;20.00;50.79
65784;BME280;52532;53.358;-1.488;2022-09-04T04:15:05;100167.63;;;18.69;53.40
65784;BME280;52532;53.358;-1.488;2022-09-04T04:18:26;100166.63;;;18.56;53.74
65784;BME280;52532;53.358;-1.488;2022-09-04T04:21:49;100166.67;;;20.67;49.80
65784;BME280;52532;53.358;-1.488;2022-09-04T04:25:11;100167.71;;;19.53;51.26
65784;BME280;52532;53.358;-1.488;2022-09-04T04:28:27;100175.66;;;20.82;49.71
65784;BME280;52532;53.358;-1.488;2022-09-04T04:31:46;100173.55;;;22.22;46.06
65784;BME280;52532;53.358;-1.488;2022-09-04T04:35:19;100175.32;;;21.62;46.85
65784;BME280;52532;53.358;-1.488;2022-09-04T04:38:47;100176.84;;;21.87;46.48
65784;BME280;52532;53.358;-1.488;2022-09-04T04:42:18;100181.56;;;20.79;47.63
65784;BME280;52532;53.358;-1.488;2022-09-04T04:45:30;100180.03;;;21.24;47.00
65784;BME280;52532;53.358;-1.488;2022-09-04T04:49:21;100181.65;;;21.74;46.27
65784;BME280;52532;53.358;-1.488;2022-09-04T04:52:38;100184.08;;;20.43;48.92
65784;BME280;52532;53.358;-1.488;2022-09-04T04:55:52;100191.32;;;21.07;47.36
65784;BME280;52532;53.358;-1.488;2022-09-04T04:59:05;100193.07;;;21.98;46.07
65784;BME280;52532;53.358;-1.488;2022-09-04T05:02:16;100198.65;;;22.29;46.13
65784;BME280;52532;53.358;-1.488;2022-09-04T05:05:54;100201.99;;;21.27;49.71
65784;BME280;52532;53.358;-1.488;2022-09-04T05:09:27;100202.32;;;19.68;51.20
65784;BME280;52532;53.358;-1.488;2022-09-04T05:12:52;100205.54;;;21.29;49.67
65784;BME280;52532;53.358;-1.488;2022-09-04T05:16:27;100205.11;;;20.15;51.55
65784;BME280;52532;53.358;-1.488;2022-09-04T05:20:16;100205.58;;;20.98;49.29
65784;BME280;52532;53.358;-1.488;2022-09-04T05:23:37;100202.05;;;22.99;45.48
65784;BME280;52532;53.358;-1.488;2022-09-04T05:27:06;100198.86;;;21.51;48.53
65784;BME280;52532;53.358;-1.488;2022-09-04T05:30:26;100201.69;;;21.93;47.25
65784;BME280;52532;53.358;-1.488;2022-09-04T05:33:50;100210.89;;;20.54;49.48
65784;BME280;52532;53.358;-1.488;2022-09-04T05:37:24;100216.81;;;22.75;45.61
65784;BME280;52532;53.358;-1.488;2022-09-04T05:40:48;100219.34;;;22.50;45.64
65784;BME280;52532;53.358;-1.488;2022-09-04T05:44:24;100220.55;;;20.96;47.70
65784;BME280;52532;53.358;-1.488;2022-09-04T05:47:57;100226.73;;;21.56;46.47
65784;BME280;52532;53.358;-1.488;2022-09-04T05:52:32;100233.25;;;22.32;45.33
65784;BME280;52532;53.358;-1.488;2022-09-04T05:56:16;100235.22;;;24.37;42.78
65784;BME280;52532;53.358;-1.488;2022-09-04T06:00:14;100240.62;;;23.61;43.88
65784;BME280;52532;53.358;-1.488;2022-09-04T06:04:54;100249.21;;;22.14;45.87
65784;BME280;52532;53.358;-1.488;2022-09-04T06:08:14;100266.11;;;23.36;43.87
65784;BME280;52532;53.358;-1.488;2022-09-04T06:11:35;100271.68;;;23.33;44.67
65784;BME280;52532;53.358;-1.488;2022-09-04T06:14:52;100275.73;;;23.07;45.31
65784;BME280;52532;53.358;-1.488;2022-09-04T06:18:14;100271.53;;;22.48;47.54
65784;BME280;52532;53.358;-1.488;2022-09-04T06:22:12;100267.08;;;20.06;52.69
65784;BME280;52532;53.358;-1.488;2022-09-04T06:26:09;100266.59;;;21.80;48.42
65784;BME280;52532;53.358;-1.488;2022-09-04T06:29:49;100267.53;;;21.28;50.56
65784;BME280;52532;53.358;-1.488;2022-09-04T06:33:40;100275.38;;;20.97;50.91
65784;BME280;52532;53.358;-1.488;2022-09-04T06:37:12;100276.01;;;22.00;49.69
65784;BME280;52532;53.358;-1.488;2022-09-04T06:40:37;100268.41;;;22.13;48.69
65784;BME280;52532;53.358;-1.488;2022-09-04T06:43:50;100260.38;;;21.93;49.12
65784;BME280;52532;53.358;-1.488;2022-09-04T06:47:06;100254.16;;;22.09;48.66
65784;BME280;52532;53.358;-1.488;2022-09-04T06:50:18;100253.49;;;22.08;48.85
65784;BME280;52532;53.358;-1.488;2022-09-04T06:53:36;100257.07;;;22.85;47.78
65784;BME280;52532;53.358;-1.488;2022-09-04T06:56:52;100254.32;;;20.66;51.71
65784;BME280;52532;53.358;-1.488;2022-09-04T07:00:13;100256.98;;;18.23;57.79
65784;BME280;52532;53.358;-1.488;2022-09-04T07:03:38;100252.16;;;21.66;52.31
65784;BME280;52532;53.358;-1.488;2022-09-04T07:07:10;100251.71;;;21.80;50.78
65784;BME280;52532;53.358;-1.488;2022-09-04T07:10:27;100255.54;;;19.11;56.18
65784;BME280;52532;53.358;-1.488;2022-09-04T07:14:01;100265.43;;;20.18;54.83
65784;BME280;52532;53.358;-1.488;2022-09-04T07:17:28;100270.20;;;21.79;50.85
65784;BME280;52532;53.358;-1.488;2022-09-04T07:21:05;100264.73;;;22.38;49.22
65784;BME280;52532;53.358;-1.488;2022-09-04T07:24:45;100270.31;;;22.07;48.93
65784;BME280;52532;53.358;-1.488;2022-09-04T07:28:08;100283.72;;;23.09;48.61
65784;BME280;52532;53.358;-1.488;2022-09-04T07:31:19;100283.83;;;20.30;53.38
65784;BME280;52532;53.358;-1.488;2022-09-04T07:34:31;100274.24;;;19.99;55.48
65784;BME280;52532;53.358;-1.488;2022-09-04T07:37:44;100269.09;;;20.13;58.24
65784;BME280;52532;53.358;-1.488;2022-09-04T07:40:55;100278.26;;;19.83;58.65
65784;BME280;52532;53.358;-1.488;2022-09-04T07:44:21;100280.61;;;21.40;54.27
65784;BME280;52532;53.358;-1.488;2022-09-04T07:47:37;100287.96;;;21.55;54.74
65784;BME280;52532;53.358;-1.488;2022-09-04T07:50:53;100297.37;;;21.24;55.93
65784;BME280;52532;53.358;-1.488;2022-09-04T07:54:18;100297.26;;;20.94;58.64
65784;BME280;52532;53.358;-1.488;2022-09-04T07:57:47;100294.39;;;21.28;58.57
65784;BME280;52532;53.358;-1.488;2022-09-04T08:01:08;100302.02;;;21.02;57.88
65784;BME280;52532;53.358;-1.488;2022-09-04T08:04:45;100305.03;;;16.88;71.01
65784;BME280;52532;53.358;-1.488;2022-09-04T08:09:14;100308.83;;;21.53;58.36
65784;BME280;52532;53.358;-1.488;2022-09-04T08:12:49;100308.36;;;20.74;57.30
65784;BME280;52532;53.358;-1.488;2022-09-04T08:16:04;100308.90;;;22.03;55.46
65784;BME280;52532;53.358;-1.488;2022-09-04T08:19:18;100308.59;;;19.70;61.66
65784;BME280;52532;53.358;-1.488;2022-09-04T08:22:32;100311.54;;;22.41;55.16
65784;BME280;52532;53.358;-1.488;2022-09-04T08:25:50;100308.19;;;20.65;59.45
65784;BME280;52532;53.358;-1.488;2022-09-04T08:29:09;100314.00;;;20.94;59.00
65784;BME280;52532;53.358;-1.488;2022-09-04T08:32:26;100316.07;;;22.76;54.77
65784;BME280;52532;53.358;-1.488;2022-09-04T08:35:40;100324.32;;;21.30;57.81
65784;BME280;52532;53.358;-1.488;2022-09-04T08:38:59;100323.32;;;21.49;59.08
65784;BME280;52532;53.358;-1.488;2022-09-04T08:42:49;100331.42;;;21.05;59.93
65784;BME280;52532;53.358;-1.488;2022-09-04T08:46:20;100342.16;;;22.24;56.69
65784;BME280;52532;53.358;-1.488;2022-09-04T08:50:35;100354.44;;;23.04;56.44
65784;BME280;52532;53.358;-1.488;2022-09-04T08:54:31;100361.65;;;21.86;57.85
65784;BME280;52532;53.358;-1.488;2022-09-04T08:59:18;100362.81;;;19.02;64.43
65784;BME280;52532;53.358;-1.488;2022-09-04T09:08:12;100365.96;;;21.76;59.64
65784;BME280;52532;53.358;-1.488;2022-09-04T09:11:41;100372.41;;;19.43;64.50
65784;BME280;52532;53.358;-1.488;2022-09-04T09:15:12;100373.88;;;20.14;63.06
65784;BME280;52532;53.358;-1.488;2022-09-04T09:18:33;100381.45;;;19.97;65.54
65784;BME280;52532;53.358;-1.488;2022-09-04T09:21:43;100374.89;;;20.61;62.80
65784;BME280;52532;53.358;-1.488;2022-09-04T09:25:07;100370.55;;;18.90;69.07
65784;BME280;52532;53.358;-1.488;2022-09-04T09:28:52;100370.90;;;19.24;68.00
65784;BME280;52532;53.358;-1.488;2022-09-04T09:37:46;100390.30;;;19.76;66.64
65784;BME280;52532;53.358;-1.488;2022-09-04T09:41:18;100388.43;;;19.29;68.57
65784;BME280;52532;53.358;-1.488;2022-09-04T09:44:48;100385.31;;;17.97;73.80
65784;BME280;52532;53.358;-1.488;2022-09-04T09:48:38;100386.94;;;19.70;68.39
65784;BME280;52532;53.358;-1.488;2022-09-04T09:52:07;100383.41;;;20.69;64.81
65784;BME280;52532;53.358;-1.488;2022-09-04T10:00:07;100381.54;;;21.15;63.60
65784;BME280;52532;53.358;-1.488;2022-09-04T10:03:44;100392.91;;;20.55;63.75
65784;BME280;52532;53.358;-1.488;2022-09-04T10:07:15;100395.24;;;19.27;69.68
65784;BME280;52532;53.358;-1.488;2022-09-04T10:10:51;100395.70;;;19.22;69.60
65784;BME280;52532;53.358;-1.488;2022-09-04T10:14:24;100391.74;;;21.28;63.62
65784;BME280;52532;53.358;-1.488;2022-09-04T10:18:04;100393.76;;;20.71;65.23
65784;BME280;52532;53.358;-1.488;2022-09-04T10:21:56;100390.12;;;20.92;63.27
65784;BME280;52532;53.358;-1.488;2022-09-04T10:25:38;100382.00;;;20.60;65.59
65784;BME280;52532;53.358;-1.488;2022-09-04T10:29:31;100382.30;;;18.93;68.58
65784;BME280;52532;53.358;-1.488;2022-09-04T10:32:55;100379.97;;;21.49;63.81
65784;BME280;52532;53.358;-1.488;2022-09-04T10:36:13;100383.40;;;21.51;61.58
65784;BME280;52532;53.358;-1.488;2022-09-04T10:39:24;100383.69;;;20.44;64.72
65784;BME280;52532;53.358;-1.488;2022-09-04T10:45:27;100388.21;;;22.51;60.42
65784;BME280;52532;53.358;-1.488;2022-09-04T10:49:17;100397.23;;;21.52;62.51
65784;BME280;52532;53.358;-1.488;2022-09-04T10:52:51;100399.00;;;21.55;61.34
65784;BME280;52532;53.358;-1.488;2022-09-04T10:56:07;100404.16;;;21.30;64.20
65784;BME280;52532;53.358;-1.488;2022-09-04T10:59:26;100411.09;;;22.03;60.92
65784;BME280;52532;53.358;-1.488;2022-09-04T11:02:57;100411.68;;;21.96;60.81
65784;BME280;52532;53.358;-1.488;2022-09-04T11:07:03;100418.86;;;22.19;60.72
65784;BME280;52532;53.358;-1.488;2022-09-04T11:10:33;100421.73;;;18.97;68.87
65784;BME280;52532;53.358;-1.488;2022-09-04T11:13:49;100421.49;;;20.78;64.35
65784;BME280;52532;53.358;-1.488;2022-09-04T11:17:16;100422.19;;;21.51;62.43
65784;BME280;52532;53.358;-1.488;2022-09-04T11:20:39;100414.16;;;21.06;64.89
65784;BME280;52532;53.358;-1.488;2022-09-04T11:24:41;100425.96;;;21.66;64.51
65784;BME280;52532;53.358;-1.488;2022-09-04T11:28:12;100426.43;;;21.78;62.29
65784;BME280;52532;53.358;-1.488;2022-09-04T11:31:34;100428.45;;;21.67;62.09
65784;BME280;52532;53.358;-1.488;2022-09-04T11:35:11;100427.00;;;21.27;62.02
65784;BME280;52532;53.358;-1.488;2022-09-04T11:38:41;100419.41;;;21.45;61.01
65784;BME280;52532;53.358;-1.488;2022-09-04T11:42:38;100427.54;;;20.77;64.73
65784;BME280;52532;53.358;-1.488;2022-09-04T11:45:56;100431.19;;;21.90;60.29
65784;BME280;52532;53.358;-1.488;2022-09-04T11:49:27;100440.54;;;23.52;55.67
65784;BME280;52532;53.358;-1.488;2022-09-04T11:52:52;100441.24;;;21.84;59.90
65784;BME280;52532;53.358;-1.488;2022-09-04T11:56:10;100445.56;;;22.04;59.84
65784;BME280;52532;53.358;-1.488;2022-09-04T12:00:05;100444.23;;;22.94;58.51
65784;BME280;52532;53.358;-1.488;2022-09-04T12:03:33;100449.97;;;21.43;61.42
65784;BME280;52532;53.358;-1.488;2022-09-04T12:06:51;100452.59;;;22.70;57.68
65784;BME280;52532;53.358;-1.488;2022-09-04T12:10:26;100455.46;;;22.27;58.62
65784;BME280;52532;53.358;-1.488;2022-09-04T12:13:45;100449.57;;;22.89;57.05
65784;BME280;52532;53.358;-1.488;2022-09-04T12:22:57;100457.42;;;22.81;59.17
65784;BME280;52532;53.358;-1.488;2022-09-04T12:27:31;100461.14;;;22.60;58.43
65784;BME280;52532;53.358;-1.488;2022-09-04T12:30:50;100454.22;;;21.65;59.09
65784;BME280;52532;53.358;-1.488;2022-09-04T12:34:12;100453.23;;;22.92;57.29
65784;BME280;52532;53.358;-1.488;2022-09-04T12:37:41;100449.01;;;22.68;57.08
65784;BME280;52532;53.358;-1.488;2022-09-04T12:41:00;100454.72;;;23.27;56.94
65784;BME280;52532;53.358;-1.488;2022-09-04T12:44:16;100451.84;;;22.88;56.36
65784;BME280;52532;53.358;-1.488;2022-09-04T12:47:34;100451.21;;;22.94;56.82
65784;BME280;52532;53.358;-1.488;2022-09-04T12:50:47;100449.36;;;24.27;54.73
65784;BME280;52532;53.358;-1.488;2022-09-04T12:54:05;100451.06;;;21.06;59.94
65784;BME280;52532;53.358;-1.488;2022-09-04T12:57:21;100453.96;;;23.53;54.37
65784;BME280;52532;53.358;-1.488;2022-09-04T13:00:33;100460.19;;;24.00;54.32
65784;BME280;52532;53.358;-1.488;2022-09-04T13:03:50;100458.61;;;24.30;54.00
65784;BME280;52532;53.358;-1.488;2022-09-04T13:07:13;100457.26;;;23.03;57.02
65784;BME280;52532;53.358;-1.488;2022-09-04T13:10:26;100451.11;;;23.90;54.04
65784;BME280;52532;53.358;-1.488;2022-09-04T13:13:44;100448.29;;;22.98;55.49
65784;BME280;52532;53.358;-1.488;2022-09-04T13:17:00;100447.03;;;21.98;58.18
65784;BME280;52532;53.358;-1.488;2022-09-04T13:20:12;100442.26;;;21.45;59.71
65784;BME280;52532;53.358;-1.488;2022-09-04T13:23:31;100447.71;;;21.72;61.41
65784;BME280;52532;53.358;-1.488;2022-09-04T13:26:46;100452.86;;;23.51;53.59
65784;BME280;52532;53.358;-1.488;2022-09-04T13:30:01;100453.68;;;22.70;55.06
65784;BME280;52532;53.358;-1.488;2022-09-04T13:33:16;100458.41;;;21.76;58.83
65784;BME280;52532;53.358;-1.488;2022-09-04T13:36:29;100458.67;;;23.29;55.05
65784;BME280;52532;53.358;-1.488;2022-09-04T13:39:49;100465.75;;;23.21;55.13
65784;BME280;52532;53.358;-1.488;2022-09-04T13:43:21;100471.19;;;23.11;54.88
65784;BME280;52532;53.358;-1.488;2022-09-04T13:46:34;100474.20;;;22.25;56.21
65784;BME280;52532;53.358;-1.488;2022-09-04T13:49:41;100473.48;;;23.29;53.76
65784;BME280;52532;53.358;-1.488;2022-09-04T13:52:52;100476.30;;;21.72;57.81
65784;BME280;52532;53.358;-1.488;2022-09-04T13:56:02;100476.77;;;22.18;57.05
65784;BME280;52532;53.358;-1.488;2022-09-04T13:59:08;100473.64;;;23.25;54.70
65784;BME280;52532;53.358;-1.488;2022-09-04T14:02:13;100474.30;;;23.15;56.50
65784;BME280;52532;53.358;-1.488;2022-09-04T14:05:19;100480.77;;;21.60;59.85
65784;BME280;52532;53.358;-1.488;2022-09-04T14:08:24;100480.17;;;23.17;58.66
65784;BME280;52532;53.358;-1.488;2022-09-04T14:11:54;100478.42;;;24.57;54.89
65784;BME280;52532;53.358;-1.488;2022-09-04T14:15:46;100480.99;;;22.91;59.12
65784;BME280;52532;53.358;-1.488;2022-09-04T14:19:13;100477.14;;;21.72;59.85
65784;BME280;52532;53.358;-1.488;2022-09-04T14:22:29;100481.86;;;24.23;53.78
65784;BME280;52532;53.358;-1.488;2022-09-04T14:25:42;100488.40;;;23.95;53.36
65784;BME280;52532;53.358;-1.488;2022-09-04T14:28:57;100486.78;;;22.72;56.56
65784;BME280;52532;53.358;-1.488;2022-09-04T14:32:14;100488.79;;;24.13;52.78
65784;BME280;52532;53.358;-1.488;2022-09-04T14:35:28;100482.39;;;25.38;50.28
65784;BME280;52532;53.358;-1.488;2022-09-04T14:38:44;100476.98;;;25.58;50.20
65784;BME280;52532;53.358;-1.488;2022-09-04T14:42:08;100478.32;;;24.44;50.72
65784;BME280;52532;53.358;-1.488;2022-09-04T14:45:28;100471.35;;;22.16;56.41
65784;BME280;52532;53.358;-1.488;2022-09-04T14:48:35;100467.95;;;22.56;56.17
65784;BME280;52532;53.358;-1.488;2022-09-04T14:51:43;100462.69;;;22.17;55.76
65784;BME280;52532;53.358;-1.488;2022-09-04T14:54:52;100462.39;;;24.12;51.62
65784;BME280;52532;53.358;-1.488;2022-09-04T14:58:02;100456.96;;;23.17;54.09
65784;BME280;52532;53.358;-1.488;2022-09-04T15:01:15;100465.59;;;24.93;51.11
65784;BME280;52532;53.358;-1.488;2022-09-04T15:04:23;100465.53;;;25.42;49.60
65784;BME280;52532;53.358;-1.488;2022-09-04T15:07:47;100462.88;;;22.19;55.45
65784;BME280;52532;53.358;-1.488;2022-09-04T15:10:55;100463.40;;;24.19;50.71
65784;BME280;52532;53.358;-1.488;2022-09-04T15:14:05;100458.71;;;24.53;50.76
65784;BME280;52532;53.358;-1.488;2022-09-04T15:17:11;100456.77;;;25.25;48.75
65784;BME280;52532;53.358;-1.488;2022-09-04T15:20:19;100458.53;;;25.84;47.60
65784;BME280;52532;53.358;-1.488;2022-09-04T15:23:28;100465.72;;;24.33;49.83
65784;BME280;52532;53.358;-1.488;2022-09-04T15:26:37;100463.44;;;24.57;49.82
65784;BME280;52532;53.358;-1.488;2022-09-04T15:29:56;100458.80;;;24.62;48.91
65784;BME280;52532;53.358;-1.488;2022-09-04T15:33:06;100461.25;;;22.23;54.65
65784;BME280;52532;53.358;-1.488;2022-09-04T15:36:15;100469.69;;;24.01;51.33
65784;BME280;52532;53.358;-1.488;2022-09-04T15:39:27;100471.52;;;25.05;49.48
65784;BME280;52532;53.358;-1.488;2022-09-04T15:42:38;100473.15;;;24.26;49.88
65784;BME280;52532;53.358;-1.488;2022-09-04T15:45:44;100473.33;;;24.79;49.41
65784;BME280;52532;53.358;-1.488;2022-09-04T15:48:52;100467.92;;;25.84;48.08
65784;BME280;52532;53.358;-1.488;2022-09-04T15:52:08;100466.64;;;25.38;47.74
65784;BME280;52532;53.358;-1.488;2022-09-04T15:55:20;100476.78;;;24.85;49.33
65784;BME280;52532;53.358;-1.488;2022-09-04T15:58:28;100474.51;;;24.56;50.79
65784;BME280;52532;53.358;-1.488;2022-09-04T16:01:43;100474.96;;;24.95;51.45
65784;BME280;52532;53.358;-1.488;2022-09-04T16:04:52;100473.62;;;23.04;55.41
65784;BME280;52532;53.358;-1.488;2022-09-04T16:08:14;100476.15;;;24.92;53.77
65784;BME280;52532;53.358;-1.488;2022-09-04T16:11:24;100477.02;;;24.43;54.57
65784;BME280;52532;53.358;-1.488;2022-09-04T16:14:34;100482.99;;;25.43;52.55
65784;BME280;52532;53.358;-1.488;2022-09-04T16:17:42;100494.93;;;21.54;63.30
65784;BME280;52532;53.358;-1.488;2022-09-04T16:20:49;100493.81;;;23.61;59.94
65784;BME280;52532;53.358;-1.488;2022-09-04T16:23:56;100494.57;;;22.39;62.63
65784;BME280;52532;53.358;-1.488;2022-09-04T16:27:05;100490.03;;;23.72;61.02
65784;BME280;52532;53.358;-1.488;2022-09-04T16:30:09;100494.44;;;24.12;60.39
65784;BME280;52532;53.358;-1.488;2022-09-04T16:33:31;100491.50;;;24.33;58.86
65784;BME280;52532;53.358;-1.488;2022-09-04T16:36:37;100492.17;;;21.80;65.12
65784;BME280;52532;53.358;-1.488;2022-09-04T16:39:56;100487.28;;;22.52;64.42
65784;BME280;52532;53.358;-1.488;2022-09-04T16:43:09;100491.30;;;21.71;66.91
65784;BME280;52532;53.358;-1.488;2022-09-04T16:46:25;100491.09;;;23.51;63.89
65784;BME280;52532;53.358;-1.488;2022-09-04T16:49:37;100487.11;;;23.83;62.97
65784;BME280;52532;53.358;-1.488;2022-09-04T16:52:48;100475.37;;;23.83;63.36
65784;BME280;52532;53.358;-1.488;2022-09-04T16:55:57;100467.52;;;23.56;63.11
65784;BME280;52532;53.358;-1.488;2022-09-04T16:59:21;100469.97;;;20.82;71.84
65784;BME280;52532;53.358;-1.488;2022-09-04T17:02:34;100464.94;;;20.12;74.38
65784;BME280;52532;53.358;-1.488;2022-09-04T17:05:46;100472.12;;;20.97;71.35
65784;BME280;52532;53.358;-1.488;2022-09-04T17:08:57;100478.45;;;22.11;68.90
65784;BME280;52532;53.358;-1.488;2022-09-04T17:12:16;100481.12;;;21.54;67.51
65784;BME280;52532;53.358;-1.488;2022-09-04T17:15:27;100480.62;;;22.46;65.68
65784;BME280;52532;53.358;-1.488;2022-09-04T17:18:32;100482.08;;;21.69;67.83
65784;BME280;52532;53.358;-1.488;2022-09-04T17:21:39;100478.50;;;21.65;68.63
65784;BME280;52532;53.358;-1.488;2022-09-04T17:25:55;100475.42;;;24.56;60.61
65784;BME280;52532;53.358;-1.488;2022-09-04T17:29:01;100475.65;;;20.81;69.19
65784;BME280;52532;53.358;-1.488;2022-09-04T17:32:12;100479.36;;;20.92;70.41
65784;BME280;52532;53.358;-1.488;2022-09-04T17:35:20;100476.81;;;21.66;67.71
65784;BME280;52532;53.358;-1.488;2022-09-04T17:38:31;100470.48;;;21.81;67.26
65784;BME280;52532;53.358;-1.488;2022-09-04T17:41:41;100470.69;;;21.96;67.90
65784;BME280;52532;53.358;-1.488;2022-09-04T17:44:54;100473.96;;;22.39;66.83
65784;BME280;52532;53.358;-1.488;2022-09-04T17:48:03;100473.91;;;21.36;68.21